Time;durP1;ratioP1;P1;durP2;ratioP2;P2;SDS_P1;SDS_P2;PMS_P1;PMS_P2;Temp;Humidity;BMP_temperature;BMP_pressure;BME280_temperature;BME280_humidity;BME280_pressure;Samples;Min_cycle;Max_cycle;Signal;HPM_P1;HPM_P2
2021/05/17 00:02:12;;;;;;;1.73;0.80;;;11.80;40.80;;;;;;5011176;28;20037;-82
2021/05/17 00:04:39;;;;;;;0.30;0.30;;;;;;;;;;5028755;28;20040;-81
2021/05/17 00:07:07;;;;;;;2.65;0.80;;;11.70;40.80;;;;;;5025887;28;20068;-82
2021/05/17 00:09:33;;;;;;;1.30;1.00;;;;;;;;;;5015971;28;20045;-82
2021/05/17 00:11:59;;;;;;;0.80;0.68;;;;;;;;;;5012576;28;20022;-80
2021/05/17 00:14:26;;;;;;;2.60;0.75;;;;;;;;;;5029813;28;20551;-81
2021/05/17 00:16:53;;;;;;;4.85;0.85;;;11.20;42.10;;;;;;5030774;28;20033;-81
2021/05/17 00:19:19;;;;;;;4.30;0.85;;;;;;;;;;5033469;28;20076;-81
2021/05/17 00:21:45;;;;;;;5.70;0.65;;;;;;;;;;5018555;28;20037;-81
2021/05/17 00:24:12;;;;;;;1.00;0.50;;;;;;;;;;5013217;28;20080;-81
2021/05/17 00:26:39;;;;;;;4.22;0.52;;;11.60;43.70;;;;;;5027939;28;20032;-81
2021/05/17 00:29:06;;;;;;;3.78;1.58;;;;;;;;;;5018201;28;20061;-81
2021/05/17 00:31:32;;;;;;;2.63;0.80;;;;;;;;;;5013048;28;20081;-81
2021/05/17 00:33:58;;;;;;;2.95;0.43;;;;;;;;;;5018046;28;20069;-82
2021/05/17 00:36:24;;;;;;;0.65;0.60;;;;;;;;;;5025746;28;20029;-81
2021/05/17 00:38:51;;;;;;;0.47;0.47;;;;;;;;;;5016084;28;20035;-81
2021/05/17 00:41:17;;;;;;;2.38;0.40;;;;;;;;;;5023641;28;20029;-82
2021/05/17 00:43:46;;;;;;;0.57;0.57;;;11.40;44.20;;;;;;5021460;28;20918;-81
2021/05/17 00:46:12;;;;;;;1.88;0.55;;;;;;;;;;5024082;28;20026;-81
2021/05/17 00:48:39;;;;;;;4.07;0.50;;;11.60;43.70;;;;;;5025722;28;20056;-81
2021/05/17 00:51:08;;;;;;;1.52;0.70;;;11.60;43.40;;;;;;5012897;28;20033;-81
2021/05/17 00:53:36;;;;;;;0.60;0.60;;;11.60;45.40;;;;;;5015717;28;20033;-82
2021/05/17 00:56:02;;;;;;;2.83;0.68;;;;;;;;;;5025791;28;20026;-82
2021/05/17 00:58:28;;;;;;;0.80;0.80;;;;;;;;;;5028257;28;20101;-82
2021/05/17 01:00:54;;;;;;;4.10;0.40;;;;;;;;;;5016306;28;20069;-81
2021/05/17 01:03:20;;;;;;;1.45;0.55;;;11.60;45.30;;;;;;5015643;28;20061;-81
2021/05/17 01:05:47;;;;;;;1.75;0.85;;;;;;;;;;5014113;28;20041;-82
2021/05/17 01:08:21;;;;;;;1.75;0.95;;;11.70;44.80;;;;;;5016319;28;20034;-81
2021/05/17 01:10:47;;;;;;;1.75;1.02;;;;;;;;;;5022569;28;20054;-82
2021/05/17 01:13:13;;;;;;;3.08;1.33;;;;;;;;;;5020255;28;20036;-81
2021/05/17 01:15:39;;;;;;;16.45;1.55;;;;;;;;;;5026379;28;20029;-81
2021/05/17 01:18:05;;;;;;;0.52;0.50;;;;;;;;;;5029359;28;20022;-81
2021/05/17 01:20:33;;;;;;;1.17;0.95;;;;;;;;;;5027826;28;20037;-82
2021/05/17 01:25:52;;;;;;;0.80;0.60;;;11.80;48.20;;;;;;5014071;28;20038;-81
2021/05/17 01:28:22;;;;;;;1.35;0.63;;;11.80;47.70;;;;;;5016920;28;20081;-81
2021/05/17 01:30:49;;;;;;;2.17;0.68;;;;;;;;;;5014377;28;20111;-81
2021/05/17 01:33:15;;;;;;;0.88;0.60;;;;;;;;;;5013855;28;20064;-82
2021/05/17 01:35:41;;;;;;;1.30;0.60;;;;;;;;;;5012944;28;20038;-81
2021/05/17 01:38:09;;;;;;;1.27;0.80;;;11.90;47.50;;;;;;5030287;28;20025;-81
2021/05/17 01:40:38;;;;;;;9.82;1.35;;;;;;;;;;5024091;28;20471;-81
2021/05/17 01:43:04;;;;;;;0.93;0.63;;;;;;;;;;5024706;28;20037;-81
2021/05/17 01:45:30;;;;;;;0.95;0.50;;;11.70;48.40;;;;;;5024892;28;20034;-81
2021/05/17 01:47:58;;;;;;;0.95;0.52;;;11.80;48.60;;;;;;5025795;28;20064;-82
2021/05/17 01:50:24;;;;;;;1.58;0.60;;;;;;;;;;5022202;28;20026;-82
2021/05/17 01:52:51;;;;;;;3.63;0.70;;;11.90;48.70;;;;;;5011611;28;20068;-81
2021/05/17 01:55:18;;;;;;;1.23;0.60;;;;;;;;;;5035241;28;20034;-81
2021/05/17 01:57:44;;;;;;;11.18;1.08;;;;;;;;;;5018636;28;20038;-82
2021/05/17 02:00:17;;;;;;;1.13;1.10;;;11.70;49.40;;;;;;5024126;28;20116;-82
2021/05/17 02:02:43;;;;;;;0.68;0.68;;;;;;;;;;5016090;28;20029;-82
2021/05/17 02:05:09;;;;;;;2.92;1.02;;;;;;;;;;5015775;28;20128;-82
2021/05/17 02:07:35;;;;;;;1.08;0.82;;;11.50;48.90;;;;;;5025927;28;20037;-81
2021/05/17 02:10:04;;;;;;;0.50;0.50;;;11.50;48.90;;;;;;5023091;28;20038;-81
2021/05/17 02:12:32;;;;;;;3.65;0.95;;;11.60;48.80;;;;;;5019962;28;20029;-82
2021/05/17 02:14:58;;;;;;;2.88;0.70;;;;;;;;;;5028635;28;20033;-81
2021/05/17 02:17:25;;;;;;;0.93;0.70;;;;;;;;;;5014640;28;20510;-81
2021/05/17 02:19:51;;;;;;;0.93;0.87;;;;;;;;;;5017047;28;20395;-82
2021/05/17 02:22:19;;;;;;;0.75;0.63;;;11.50;47.10;;;;;;5007453;28;20275;-82
2021/05/17 02:24:46;;;;;;;2.17;1.52;;;11.60;46.30;;;;;;5019317;28;20033;-82
2021/05/17 02:27:14;;;;;;;2.03;0.73;;;11.50;46.30;;;;;;5024810;28;20116;-82
2021/05/17 02:29:40;;;;;;;0.70;0.70;;;;;;;;;;5012005;28;20041;-82
2021/05/17 02:32:06;;;;;;;0.77;0.50;;;;;;;;;;5014180;28;20082;-81
2021/05/17 02:34:33;;;;;;;1.88;0.70;;;;;;;;;;5027596;28;20040;-81
2021/05/17 02:36:58;;;;;;;3.03;0.55;;;11.70;59.80;;;;;;5019576;28;20029;-81
2021/05/17 02:39:25;;;;;;;2.58;1.30;;;;;;;;;;5023121;28;20029;-81
2021/05/17 02:41:54;;;;;;;0.95;0.70;;;11.80;47.20;;;;;;5011801;28;20022;-81
2021/05/17 02:44:20;;;;;;;3.33;0.70;;;;;;;;;;5013174;28;20037;-82
2021/05/17 02:46:46;;;;;;;0.60;0.60;;;;;;;;;;5015823;28;20041;-81
2021/05/17 02:49:12;;;;;;;0.43;0.43;;;;;;;;;;5024391;28;20033;-82
2021/05/17 02:51:38;;;;;;;1.42;0.50;;;;;;;;;;5020390;28;20041;-82
2021/05/17 02:54:24;;;;;;;2.80;1.05;;;11.70;69.80;;;;;;5024444;28;20125;-81
2021/05/17 02:56:58;;;;;;;0.90;0.65;;;11.80;47.20;;;;;;5026381;28;20021;-81
2021/05/17 02:59:49;;;;;;;6.22;1.13;;;12.70;48.10;;;;;;5016403;28;20124;-81
2021/05/17 03:02:20;;;;;;;1.25;0.70;;;11.90;46.20;;;;;;5007626;28;20415;-81
2021/05/17 03:04:51;;;;;;;4.97;0.90;;;11.80;47.40;;;;;;5026826;28;20033;-81
2021/05/17 03:07:17;;;;;;;0.80;0.50;;;;;;;;;;5023950;28;20162;-81
2021/05/17 03:09:46;;;;;;;8.77;0.73;;;;;;;;;;5014543;28;20164;-82
2021/05/17 03:12:12;;;;;;;2.42;1.08;;;;;;;;;;5017729;28;20033;-82
2021/05/17 03:14:41;;;;;;;1.85;1.05;;;11.30;48.20;;;;;;5025024;28;20037;-81
2021/05/17 03:17:10;;;;;;;1.15;0.73;;;11.40;48.20;;;;;;5013565;28;20569;-81
2021/05/17 03:19:38;;;;;;;2.17;0.93;;;11.40;48.40;;;;;;5026034;28;20045;-81
2021/05/17 03:22:04;;;;;;;3.05;0.85;;;;;;;;;;5021613;28;20696;-82
2021/05/17 03:24:35;;;;;;;0.60;0.55;;;11.40;48.20;;;;;;5022602;28;20087;-81
2021/05/17 03:27:20;;;;;;;1.27;0.70;;;11.20;48.30;;;;;;5031329;28;20570;-81
2021/05/17 03:29:46;;;;;;;1.25;1.13;;;;;;;;;;5015708;28;20137;-81
2021/05/17 03:32:12;;;;;;;5.97;1.10;;;;;;;;;;5022847;28;20033;-81
2021/05/17 03:34:38;;;;;;;0.68;0.60;;;;;;;;;;5020596;28;20041;-82
2021/05/17 03:37:04;;;;;;;0.65;0.60;;;;;;;;;;5030970;28;20065;-81
2021/05/17 03:39:30;;;;;;;3.70;1.05;;;;;;;;;;5022342;28;20026;-81
2021/05/17 03:41:57;;;;;;;4.03;0.73;;;;;;;;;;5016944;28;20569;-81
2021/05/17 03:44:23;;;;;;;0.50;0.50;;;;;;;;;;5020493;28;20429;-81
2021/05/17 03:46:49;;;;;;;0.35;0.35;;;;;;;;;;5019353;28;20042;-81
2021/05/17 03:49:14;;;;;;;1.15;0.80;;;;;;;;;;5022940;28;20498;-81
2021/05/17 03:51:41;;;;;;;4.85;0.85;;;;;;;;;;5025915;28;20037;-83
2021/05/17 03:54:07;;;;;;;0.95;0.70;;;;;;;;;;5014009;28;20120;-82
2021/05/17 03:56:32;;;;;;;4.65;0.75;;;;;;;;;;5027345;28;20124;-82
2021/05/17 03:58:58;;;;;;;2.28;0.60;;;;;;;;;;5024937;28;20022;-82
2021/05/17 04:01:24;;;;;;;0.82;0.40;;;;;;;;;;5027012;28;20497;-82
2021/05/17 04:03:53;;;;;;;2.20;0.98;;;;;;;;;;5026296;28;20033;-81
2021/05/17 04:06:25;;;;;;;5.07;1.70;;;;;;;;;;5017836;28;20075;-81
2021/05/17 04:14:34;;;;;;;0.70;0.70;;;;;;;;;;4983972;28;20038;-81
2021/05/17 04:17:00;;;;;;;0.98;0.95;;;;;;;;;;4976824;28;20094;-82
2021/05/17 04:19:27;;;;;;;0.70;0.70;;;;;;;;;;4977109;28;20548;-82
2021/05/17 04:21:53;;;;;;;2.35;0.68;;;;;;;;;;4973150;28;20574;-80
2021/05/17 04:24:19;;;;;;;0.40;0.40;;;;;;;;;;4972889;28;20575;-81
2021/05/17 04:26:45;;;;;;;1.25;1.05;;;;;;;;;;4972024;28;20080;-82
2021/05/17 04:29:11;;;;;;;0.70;0.70;;;;;;;;;;4975789;28;20049;-81
2021/05/17 04:31:37;;;;;;;1.70;1.13;;;;;;;;;;4973594;28;20542;-81
2021/05/17 04:34:03;;;;;;;10.73;1.05;;;;;;;;;;4977326;28;20049;-81
2021/05/17 04:36:31;;;;;;;0.82;0.82;;;;;;;;;;4984370;28;20038;-82
2021/05/17 04:38:58;;;;;;;1.38;0.60;;;;;;;;;;4972679;28;20026;-81
2021/05/17 04:41:24;;;;;;;0.75;0.75;;;;;;;;;;4969496;28;20576;-81
2021/05/17 04:43:50;;;;;;;1.08;0.70;;;;;;;;;;4970019;28;20042;-82
2021/05/17 04:46:17;;;;;;;5.47;0.60;;;;;;;;;;4971789;28;20613;-81
2021/05/17 04:48:49;;;;;;;2.15;0.70;;;;;;;;;;5019777;28;20055;-82
2021/05/17 04:51:19;;;;;;;5.47;0.80;;;11.10;44.60;;;;;;5021364;28;20037;-81
2021/05/17 04:53:45;;;;;;;0.70;0.60;;;;;;;;;;5013842;28;20034;-81
2021/05/17 04:56:11;;;;;;;2.22;0.93;;;;;;;;;;5017364;28;20058;-82
2021/05/17 04:58:37;;;;;;;1.05;0.60;;;;;;;;;;5025796;28;20061;-81
2021/05/17 05:01:04;;;;;;;2.03;1.70;;;10.90;45.00;;;;;;5025266;28;20388;-82
2021/05/17 05:03:30;;;;;;;0.55;0.55;;;;;;;;;;5022484;28;20703;-81
2021/05/17 05:05:59;;;;;;;1.90;1.30;;;;;;;;;;5013950;28;20112;-82
2021/05/17 05:08:25;;;;;;;1.42;1.13;;;;;;;;;;5026559;28;20067;-82
2021/05/17 05:10:52;;;;;;;3.35;1.00;;;;;;;;;;5018528;28;20600;-82
2021/05/17 05:13:18;;;;;;;3.53;0.98;;;;;;;;;;5016499;28;20032;-82
2021/05/17 05:15:44;;;;;;;2.60;0.80;;;;;;;;;;5028854;28;20033;-81
2021/05/17 05:18:11;;;;;;;3.30;0.50;;;;;;;;;;5015443;28;20032;-81
2021/05/17 05:20:37;;;;;;;0.75;0.60;;;;;;;;;;5017138;28;20036;-83
2021/05/17 05:23:04;;;;;;;9.00;1.05;;;;;;;;;;5010123;28;20030;-81
2021/05/17 05:28:17;;;;;;;3.25;1.25;;;;;;;;;;5021950;28;20482;-81
2021/05/17 05:31:01;;;;;;;3.95;0.73;;;;;;;;;;5019095;28;20104;-80
2021/05/17 05:33:27;;;;;;;4.88;1.00;;;;;;;;;;5016582;28;20033;-81
2021/05/17 05:35:53;;;;;;;7.63;1.23;;;;;;;;;;5025392;28;20091;-82
2021/05/17 05:38:19;;;;;;;1.58;0.63;;;;;;;;;;5019974;28;20094;-82
2021/05/17 05:40:45;;;;;;;4.60;1.63;;;;;;;;;;5015346;28;20053;-87
2021/05/17 05:43:11;;;;;;;0.55;0.50;;;;;;;;;;5018383;28;20030;-82
2021/05/17 05:45:44;;;;;;;0.40;0.40;;;;;;;;;;5017755;28;20399;-90
2021/05/17 05:48:10;;;;;;;3.95;0.60;;;;;;;;;;5032862;28;20402;-89
2021/05/17 05:50:38;;;;;;;4.13;0.70;;;;;;;;;;5031785;28;20037;-89
2021/05/17 05:53:04;;;;;;;3.70;0.95;;;;;;;;;;5026376;28;20398;-89
2021/05/17 05:55:30;;;;;;;0.43;0.43;;;;;;;;;;5025132;28;20175;-82
2021/05/17 05:57:57;;;;;;;1.58;0.70;;;;;;;;;;5026234;28;20033;-82
2021/05/17 06:00:29;;;;;;;3.30;0.80;;;;;;;;;;5028352;28;20025;-82
2021/05/17 06:02:55;;;;;;;0.60;0.60;;;;;;;;;;5011668;28;20454;-82
2021/05/17 06:05:21;;;;;;;2.70;0.57;;;;;;;;;;5013471;28;20112;-82
2021/05/17 06:07:47;;;;;;;1.05;0.43;;;;;;;;;;5026599;28;20040;-82
2021/05/17 06:10:13;;;;;;;0.88;0.40;;;;;;;;;;5027750;28;20122;-81
2021/05/17 06:12:42;;;;;;;3.50;0.40;;;;;;;;;;5024686;28;20029;-82
2021/05/17 06:15:09;;;;;;;9.27;1.00;;;;;;;;;;5013625;28;20029;-82
2021/05/17 06:17:35;;;;;;;1.40;0.60;;;13.30;42.10;;;;;;5012071;28;20030;-82
2021/05/17 06:20:02;;;;;;;1.83;0.57;;;;;;;;;;5015576;28;20331;-82
2021/05/17 06:22:29;;;;;;;1.40;0.52;;;;;;;;;;5016214;28;20045;-81
2021/05/17 06:24:57;;;;;;;2.80;0.47;;;;;;;;;;5016425;28;20181;-82
2021/05/17 06:27:24;;;;;;;5.15;0.73;;;;;;;;;;5015432;28;20041;-82
2021/05/17 06:29:55;;;;;;;1.58;0.70;;;13.60;41.50;;;;;;5026557;28;20164;-82
2021/05/17 06:32:21;;;;;;;2.35;0.82;;;;;;;;;;5014165;28;20034;-82
2021/05/17 06:34:48;;;;;;;2.28;0.57;;;;;;;;;;5021991;28;20051;-82
2021/05/17 06:37:14;;;;;;;4.47;0.60;;;;;;;;;;5023520;28;20056;-82
2021/05/17 06:39:40;;;;;;;1.10;0.65;;;;;;;;;;5025823;28;20061;-82
2021/05/17 06:42:06;;;;;;;6.13;0.47;;;;;;;;;;5027419;28;20032;-82
2021/05/17 06:44:33;;;;;;;1.33;0.30;;;;;;;;;;5010060;28;20402;-83
2021/05/17 06:46:59;;;;;;;2.38;0.70;;;;;;;;;;5027659;28;20036;-81
2021/05/17 06:49:27;;;;;;;2.90;0.70;;;;;;;;;;5019556;28;20038;-83
2021/05/17 06:51:53;;;;;;;8.77;0.65;;;13.40;41.20;;;;;;5026320;28;20057;-82
2021/05/17 06:54:24;;;;;;;1.55;0.63;;;13.50;41.20;;;;;;5026348;28;20052;-83
2021/05/17 06:59:23;;;;;;;5.25;0.50;;;;;;;;;;5028058;28;20117;-87
2021/05/17 07:01:49;;;;;;;1.63;0.57;;;13.30;62.60;;;;;;5029685;28;20037;-89
2021/05/17 07:04:16;;;;;;;1.23;0.70;;;13.50;40.30;;;;;;5030197;28;20079;-90
2021/05/17 07:06:53;;;;;;;4.10;0.95;;;13.60;41.10;;;;;;5028455;28;20478;-90
2021/05/17 07:12:10;;;;;;;0.82;0.68;;;;;;;;;;5012408;28;20076;-81
2021/05/17 07:14:36;;;;;;;0.75;0.40;;;;;;;;;;5010507;28;20118;-80
2021/05/17 07:17:02;;;;;;;0.90;0.82;;;;;;;;;;5027276;28;20049;-81
2021/05/17 07:19:27;;;;;;;1.27;0.52;;;;;;;;;;5019298;28;20483;-81
2021/05/17 07:24:38;;;;;;;3.55;0.98;;;;;;;;;;5025910;28;20039;-81
2021/05/17 07:27:04;;;;;;;4.78;0.45;;;14.30;47.80;;;;;;5011713;28;20025;-81
2021/05/17 07:29:33;;;;;;;0.30;0.30;;;;;;;;;;5020942;28;20037;-81
2021/05/17 07:31:59;;;;;;;0.40;0.40;;;;;;;;;;5015301;28;20053;-81
2021/05/17 07:34:25;;;;;;;15.00;1.55;;;;;;;;;;5014958;28;20022;-82
2021/05/17 07:36:51;;;;;;;1.95;1.20;;;;;;;;;;5015467;28;20038;-82
2021/05/17 07:39:17;;;;;;;0.47;0.47;;;;;;;;;;5027037;28;20033;-81
2021/05/17 07:41:44;;;;;;;1.08;0.50;;;;;;;;;;5010527;28;20059;-82
2021/05/17 07:44:10;;;;;;;0.43;0.30;;;;;;;;;;5027383;28;20033;-81
2021/05/17 07:46:36;;;;;;;1.88;0.45;;;;;;;;;;5026348;28;20124;-82
2021/05/17 07:49:35;;;;;;;7.00;0.73;;;;;;;;;;5025977;28;20118;-90
2021/05/17 07:51:49;;;;;;;5.50;0.40;;;15.90;36.10;;;;;;5030312;28;20049;-89
2021/05/17 07:54:19;;;;;;;0.90;0.73;;;15.90;36.00;;;;;;5026517;28;20187;-81
2021/05/17 07:56:45;;;;;;;0.65;0.52;;;;;;;;;;5025989;28;20029;-81
2021/05/17 07:59:11;;;;;;;11.57;0.70;;;;;;;;;;5013696;28;20026;-81
2021/05/17 08:01:37;;;;;;;2.38;0.60;;;;;;;;;;5014966;28;20038;-81
2021/05/17 08:04:03;;;;;;;0.57;0.50;;;;;;;;;;5014857;28;20061;-82
2021/05/17 08:06:29;;;;;;;0.55;0.40;;;;;;;;;;5014652;28;20186;-82
2021/05/17 08:08:55;;;;;;;1.75;0.60;;;;;;;;;;5029145;28;25602;-81
2021/05/17 08:11:21;;;;;;;4.25;1.17;;;;;;;;;;5030464;28;20095;-81
2021/05/17 08:13:48;;;;;;;1.58;0.50;;;;;;;;;;5018753;28;20410;-80
2021/05/17 08:16:15;;;;;;;0.55;0.30;;;;;;;;;;5019647;28;20033;-82
2021/05/17 08:18:41;;;;;;;0.75;0.75;;;;;;;;;;5028653;28;20018;-81
2021/05/17 08:21:07;;;;;;;0.90;0.77;;;;;;;;;;5014785;28;20446;-81
2021/05/17 08:23:34;;;;;;;4.15;0.88;;;15.00;36.70;;;;;;5031874;28;20509;-81
2021/05/17 08:26:00;;;;;;;7.47;0.70;;;;;;;;;;5029065;28;20546;-82
2021/05/17 08:28:26;;;;;;;4.95;0.85;;;;;;;;;;5021401;28;20034;-82
2021/05/17 08:30:56;;;;;;;0.30;0.30;;;;;;;;;;5017826;28;20053;-81
2021/05/17 08:33:22;;;;;;;1.85;0.88;;;;;;;;;;5017165;28;20030;-82
2021/05/17 08:35:48;;;;;;;0.30;0.30;;;15.00;37.80;;;;;;5013274;28;20026;-81
2021/05/17 08:38:15;;;;;;;3.15;2.55;;;15.00;37.80;;;;;;5029148;28;20602;-82
2021/05/17 08:40:42;;;;;;;11.88;0.90;;;15.00;38.90;;;;;;5019929;28;20040;-81
2021/05/17 08:43:08;;;;;;;0.57;0.40;;;;;;;;;;5022601;28;20123;-81
2021/05/17 08:45:35;;;;;;;1.60;0.77;;;15.60;38.80;;;;;;5028962;28;20040;-81
2021/05/17 08:48:01;;;;;;;0.30;0.30;;;;;;;;;;5025726;28;20506;-81
2021/05/17 08:50:27;;;;;;;0.93;0.88;;;;;;;;;;5030198;28;20042;-82
2021/05/17 08:52:53;;;;;;;3.10;0.65;;;18.10;32.50;;;;;;5026226;28;20037;-81
2021/05/17 08:55:20;;;;;;;5.60;0.45;;;;;;;;;;5028107;28;20048;-81
2021/05/17 08:57:47;;;;;;;1.30;0.55;;;18.70;33.70;;;;;;5028629;28;20041;-82
2021/05/17 09:00:17;;;;;;;1.00;0.50;;;19.00;33.50;;;;;;5028334;28;20037;-81
2021/05/17 09:02:43;;;;;;;1.08;0.30;;;;;;;;;;5030629;28;20033;-81
2021/05/17 09:05:19;;;;;;;1.50;0.35;;;19.40;31.10;;;;;;5027884;28;20136;-82
2021/05/17 09:07:56;;;;;;;2.78;0.45;;;19.10;30.00;;;;;;5028975;28;20033;-82
2021/05/17 09:10:30;;;;;;;1.00;0.30;;;18.50;30.50;;;;;;5021784;28;20152;-81
2021/05/17 09:12:57;;;;;;;0.40;0.40;;;18.20;31.40;;;;;;5022514;28;20086;-92
2021/05/17 09:15:49;;;;;;;1.48;0.73;;;17.90;31.20;;;;;;5029676;28;20018;-81
2021/05/17 09:18:15;;;;;;;3.95;0.40;;;;;;;;;;5014338;28;20520;-81
2021/05/17 09:20:48;;;;;;;1.70;0.50;;;17.20;32.50;;;;;;5028677;28;20034;-80
2021/05/17 09:23:14;;;;;;;3.28;0.75;;;;;;;;;;5014426;28;20026;-80
2021/05/17 09:25:57;;;;;;;3.42;0.75;;;16.70;34.20;;;;;;5026360;28;20148;-80
2021/05/17 09:28:31;;;;;;;2.10;0.98;;;16.40;34.40;;;;;;5028358;28;20033;-80
2021/05/17 09:31:04;;;;;;;1.98;0.50;;;16.40;37.10;;;;;;5028075;28;20506;-80
2021/05/17 09:33:42;;;;;;;0.80;0.40;;;16.50;36.90;;;;;;5028488;28;20639;-81
2021/05/17 09:36:40;;;;;;;2.00;0.50;;;16.80;36.30;;;;;;5014402;28;20025;-81
2021/05/17 09:39:15;;;;;;;11.70;2.47;;;19.20;38.50;;;;;;5011558;28;20037;-80
2021/05/17 09:41:47;;;;;;;0.70;0.70;;;17.30;36.90;;;;;;5027784;28;20891;-81
2021/05/17 09:44:24;;;;;;;1.10;0.40;;;17.40;36.50;;;;;;5045673;28;20124;-88
2021/05/17 09:47:08;;;;;;;1.27;0.30;;;17.20;36.30;;;;;;5018895;28;20022;-85
2021/05/17 09:49:34;;;;;;;2.60;0.60;;;;;;;;;;5016695;28;20021;-81
2021/05/17 09:52:11;;;;;;;2.38;0.43;;;17.20;38.70;;;;;;5020559;28;20061;-82
2021/05/17 09:54:47;;;;;;;0.77;0.30;;;17.40;44.60;;;;;;5022937;28;20044;-81
2021/05/17 09:57:16;;;;;;;0.80;0.30;;;17.90;36.50;;;;;;5025148;28;20037;-82
2021/05/17 09:59:49;;;;;;;2.55;0.40;;;17.80;36.80;;;;;;5026220;28;20029;-81
2021/05/17 10:02:30;;;;;;;3.33;0.68;;;17.40;36.40;;;;;;5013721;28;20427;-82
2021/05/17 10:04:57;;;;;;;0.20;0.20;;;;;;;;;;5028495;28;20540;-81
2021/05/17 10:07:23;;;;;;;3.97;0.70;;;;;;;;;;5028037;28;20029;-82
2021/05/17 10:09:50;;;;;;;1.05;0.40;;;16.80;43.70;;;;;;5025300;28;20049;-81
2021/05/17 10:12:16;;;;;;;0.55;0.40;;;;;;;;;;5024955;28;20021;-81
2021/05/17 10:14:42;;;;;;;0.88;0.68;;;;;;;;;;5013691;28;20083;-81
2021/05/17 10:17:08;;;;;;;0.57;0.43;;;;;;;;;;5015716;28;20048;-81
2021/05/17 10:19:34;;;;;;;0.60;0.38;;;;;;;;;;5023785;28;20036;-82
2021/05/17 10:22:00;;;;;;;0.68;0.50;;;;;;;;;;5023448;28;20678;-82
2021/05/17 10:24:26;;;;;;;1.33;0.55;;;19.00;46.10;;;;;;5016117;28;20053;-81
2021/05/17 10:26:52;;;;;;;1.65;1.27;;;;;;;;;;5027109;28;20029;-81
2021/05/17 10:29:18;;;;;;;2.80;0.30;;;;;;;;;;5027707;28;20110;-81
2021/05/17 10:31:53;;;;;;;0.40;0.40;;;20.10;42.70;;;;;;5020062;28;20045;-81
2021/05/17 10:34:19;;;;;;;0.57;0.30;;;;;;;;;;5027058;28;20441;-81
2021/05/17 10:36:50;;;;;;;1.85;0.20;;;;;;;;;;5021513;28;20030;-83
2021/05/17 10:39:18;;;;;;;0.65;0.38;;;;;;;;;;5013778;28;20032;-82
2021/05/17 10:47:42;;;;;;;0.10;0.10;;;;;;;;;;5020262;28;20103;-81
2021/05/17 10:50:21;;;;;;;0.68;0.20;;;22.40;25.80;;;;;;5023829;28;20030;-81
2021/05/17 10:52:47;;;;;;;1.13;0.35;;;;;;;;;;5015267;28;20140;-82
2021/05/17 10:55:15;;;;;;;0.20;0.13;;;22.50;25.30;;;;;;5017774;28;20699;-82
2021/05/17 11:00:29;;;;;;;0.53;0.30;;;;;;;;;;5027039;28;20033;-81
2021/05/17 11:03:20;;;;;;;1.45;0.50;;;21.80;32.20;;;;;;5026532;28;20049;-81
2021/05/17 11:05:47;;;;;;;0.20;0.20;;;;;;;;;;5025067;28;20017;-80
2021/05/17 11:08:14;;;;;;;0.20;0.20;;;21.10;27.90;;;;;;5014738;28;20041;-80
2021/05/17 11:10:49;;;;;;;0.43;0.20;;;20.90;29.30;;;;;;5020635;28;20049;-81
2021/05/17 11:13:17;;;;;;;0.75;0.25;;;20.70;27.00;;;;;;5020467;28;20038;-81
2021/05/17 11:16:00;;;;;;;1.30;0.50;;;20.20;31.50;;;;;;5026743;28;20060;-82
2021/05/17 11:18:26;;;;;;;0.25;0.25;;;;;;;;;;5026844;28;20037;-85
2021/05/17 11:20:54;;;;;;;0.57;0.40;;;19.90;31.90;;;;;;5026511;28;20555;-81
2021/05/17 11:23:26;;;;;;;1.05;0.30;;;;;;;;;;5027692;28;20497;-81
2021/05/17 11:26:15;;;;;;;1.95;0.30;;;;;;;;;;5015283;28;20589;-81
2021/05/17 11:28:42;;;;;;;0.75;0.73;;;;;;;;;;5015443;28;20061;-81
2021/05/17 11:31:20;;;;;;;1.00;0.30;;;;;;;;;;5015364;28;20081;-81
2021/05/17 11:33:55;;;;;;;2.17;0.20;;;19.90;49.80;;;;;;5017589;28;20033;-79
2021/05/17 11:36:25;;;;;;;2.88;0.75;;;20.20;30.10;;;;;;5026953;28;20029;-81
2021/05/17 11:39:15;;;;;;;1.52;0.30;;;20.30;32.70;;;;;;5009958;28;20112;-80
2021/05/17 11:41:48;;;;;;;0.43;0.30;;;20.40;32.40;;;;;;5026125;28;20025;-81
2021/05/17 11:44:21;;;;;;;0.35;0.20;;;20.30;28.30;;;;;;5016250;28;20029;-82
2021/05/17 11:47:08;;;;;;;2.30;0.32;;;20.40;31.40;;;;;;5019089;28;20483;-80
2021/05/17 11:49:37;;;;;;;0.20;0.20;;;20.40;29.50;;;;;;5026970;28;20500;-81
2021/05/17 11:52:12;;;;;;;1.42;0.50;;;20.40;29.50;;;;;;5029801;28;20043;-80
2021/05/17 11:54:39;;;;;;;2.50;0.50;;;19.80;28.90;;;;;;5029122;28;20029;-81
2021/05/17 11:57:07;;;;;;;0.20;0.20;;;19.60;29.40;;;;;;5030379;28;20048;-80
2021/05/17 11:59:33;;;;;;;6.47;0.43;;;;;;;;;;5030699;28;20029;-81
2021/05/17 12:02:01;;;;;;;3.13;0.32;;;19.50;31.00;;;;;;5029726;28;20033;-80
2021/05/17 12:04:33;;;;;;;0.63;0.40;;;19.60;28.90;;;;;;5022973;28;20033;-81
2021/05/17 12:07:12;;;;;;;3.08;0.43;;;19.60;29.20;;;;;;5020692;28;20033;-80
2021/05/17 12:09:38;;;;;;;0.77;0.40;;;;;;;;;;5028795;28;20032;-81
2021/05/17 12:12:34;;;;;;;0.20;0.20;;;19.50;29.40;;;;;;5014899;28;20060;-81
2021/05/17 12:15:03;;;;;;;0.10;0.10;;;;;;;;;;5009687;28;20120;-81
2021/05/17 12:17:33;;;;;;;0.40;0.30;;;19.50;30.10;;;;;;5026874;28;20029;-80
2021/05/17 12:20:03;;;;;;;1.17;0.70;;;19.00;29.50;;;;;;5018134;28;20087;-80
2021/05/17 12:22:36;;;;;;;1.73;0.50;;;;;;;;;;5018254;28;20521;-80
2021/05/17 12:25:11;;;;;;;0.38;0.20;;;18.80;28.90;;;;;;5018664;28;20066;-80
2021/05/17 12:27:38;;;;;;;2.17;0.43;;;18.40;30.40;;;;;;5029075;28;20025;-81
2021/05/17 12:30:04;;;;;;;2.35;0.40;;;;;;;;;;5014017;28;20071;-80
2021/05/17 12:32:34;;;;;;;1.42;0.47;;;;;;;;;;5014594;28;20137;-81
2021/05/17 12:35:27;;;;;;;4.38;0.40;;;18.60;35.20;;;;;;5018176;28;20505;-80
2021/05/17 12:37:56;;;;;;;5.97;0.40;;;18.80;37.20;;;;;;5026970;28;20415;-81
2021/05/17 12:40:24;;;;;;;6.45;0.77;;;18.50;37.10;;;;;;5029324;28;20409;-81
2021/05/17 12:43:07;;;;;;;0.50;0.30;;;18.50;37.40;;;;;;5028730;28;20564;-80
2021/05/17 12:45:37;;;;;;;0.30;0.30;;;18.40;38.60;;;;;;5029368;28;20421;-81
2021/05/17 12:48:21;;;;;;;0.90;0.55;;;18.50;36.60;;;;;;5014103;28;20033;-80
2021/05/17 12:50:49;;;;;;;1.48;0.45;;;18.40;38.90;;;;;;5028690;28;20049;-81
2021/05/17 12:53:19;;;;;;;0.57;0.20;;;18.60;37.00;;;;;;5029269;28;20029;-82
2021/05/17 12:55:45;;;;;;;2.50;0.40;;;;;;;;;;5027750;28;20064;-81
2021/05/17 12:58:13;;;;;;;1.48;0.38;;;18.80;34.40;;;;;;5028486;28;20072;-81
2021/05/17 13:00:52;;;;;;;1.15;0.75;;;;;;;;;;5028164;28;20034;-82
2021/05/17 13:03:28;;;;;;;0.20;0.20;;;19.00;35.30;;;;;;5016136;28;20038;-81
2021/05/17 13:05:54;;;;;;;1.27;0.65;;;;;;;;;;5028794;28;20099;-81
2021/05/17 13:08:21;;;;;;;1.30;0.38;;;19.00;35.90;;;;;;5015430;28;20053;-82
2021/05/17 13:11:01;;;;;;;0.30;0.28;;;19.10;35.50;;;;;;5027468;28;20581;-82
2021/05/17 13:13:47;;;;;;;4.55;0.80;;;19.10;37.00;;;;;;5028597;28;20104;-82
2021/05/17 13:16:14;;;;;;;2.95;0.57;;;19.20;34.90;;;;;;5028300;28;20037;-82
2021/05/17 13:18:56;;;;;;;0.67;0.47;;;18.90;44.50;;;;;;5027505;28;20040;-82
2021/05/17 13:21:34;;;;;;;2.95;0.47;;;19.00;32.30;;;;;;5028568;28;20291;-82
2021/05/17 13:32:14;;;;;;;0.93;0.30;;;;;;;;;;5014117;28;20620;-82
2021/05/17 13:34:41;;;;;;;0.82;0.38;;;19.00;29.70;;;;;;5025640;28;20109;-81
2021/05/17 13:37:07;;;;;;;;;;;19.00;30.00;;;;;;5021051;28;20769;-82
2021/05/17 13:39:34;;;;;;;0.40;0.30;;;;;;;;;;5017220;28;20012;-81
2021/05/17 13:41:59;;;;;;;1.60;0.40;;;;;;;;;;5027445;28;20518;-81
2021/05/17 13:44:25;;;;;;;0.40;0.40;;;;;;;;;;5019552;28;20022;-82
2021/05/17 13:46:53;;;;;;;1.40;0.47;;;;;;;;;;5015553;28;20034;-81
2021/05/17 13:49:19;;;;;;;0.43;0.30;;;;;;;;;;5022957;28;20112;-82
2021/05/17 13:51:45;;;;;;;0.20;0.20;;;;;;;;;;5027939;28;20049;-81
2021/05/17 13:54:11;;;;;;;1.90;0.52;;;;;;;;;;5025582;28;20421;-81
2021/05/17 13:56:37;;;;;;;2.28;0.40;;;;;;;;;;5024144;28;20119;-82
2021/05/17 13:59:03;;;;;;;1.90;0.75;;;;;;;;;;5023499;28;20068;-81
2021/05/17 14:01:29;;;;;;;0.30;0.30;;;;;;;;;;5021202;28;20029;-82
2021/05/17 14:03:55;;;;;;;0.93;0.50;;;;;;;;;;5023526;28;20056;-82
2021/05/17 14:06:21;;;;;;;0.73;0.45;;;;;;;;;;5016438;28;20075;-81
2021/05/17 14:08:47;;;;;;;2.40;0.40;;;;;;;;;;5025741;28;20501;-81
2021/05/17 14:11:13;;;;;;;1.85;0.45;;;;;;;;;;5016190;28;20042;-81
2021/05/17 14:13:39;;;;;;;0.65;0.28;;;;;;;;;;5020503;28;20423;-82
2021/05/17 14:16:05;;;;;;;0.68;0.52;;;;;;;;;;5021903;28;20029;-82
2021/05/17 14:18:31;;;;;;;0.28;0.28;;;;;;;;;;5023573;28;20700;-81
2021/05/17 14:20:57;;;;;;;0.30;0.30;;;;;;;;;;5014417;28;20095;-82
2021/05/17 14:23:23;;;;;;;3.92;0.30;;;;;;;;;;5014356;28;20566;-81
2021/05/17 14:25:49;;;;;;;0.20;0.20;;;;;;;;;;5015229;28;20029;-81
2021/05/17 14:28:16;;;;;;;0.57;0.20;;;;;;;;;;5014821;28;20038;-81
2021/05/17 14:30:42;;;;;;;0.20;0.20;;;;;;;;;;5020946;28;20146;-81
2021/05/17 14:33:10;;;;;;;2.55;0.85;;;;;;;;;;5016092;28;20514;-80
2021/05/17 14:35:36;;;;;;;0.20;0.20;;;;;;;;;;5037622;28;20025;-82
2021/05/17 14:38:02;;;;;;;0.63;0.35;;;;;;;;;;5025595;28;20036;-82
2021/05/17 14:40:29;;;;;;;2.65;0.80;;;;;;;;;;5019978;28;20053;-81
2021/05/17 14:42:55;;;;;;;0.20;0.20;;;;;;;;;;5012495;28;20034;-81